sensor_id;sensor_type;location;lat;lon;timestamp;pressure;altitude;pressure_sealevel;temperature;humidity
66887;BME280;67239;51.680;5.976;2023-05-10T00:00:46;100716.69;;;12.72;100.00
66887;BME280;67239;51.680;5.976;2023-05-10T00:03:13;100721.00;;;12.75;100.00
66887;BME280;67239;51.680;5.976;2023-05-10T00:05:40;100708.56;;;12.77;100.00
66887;BME280;67239;51.680;5.976;2023-05-10T00:08:07;100705.00;;;12.78;100.00
66887;BME280;67239;51.680;5.976;2023-05-10T00:10:34;100705.81;;;12.80;100.00
66887;BME280;67239;51.680;5.976;2023-05-10T00:13:01;100705.84;;;12.79;100.00
66887;BME280;67239;51.680;5.976;2023-05-10T00:15:29;100701.44;;;12.79;100.00
66887;BME280;67239;51.680;5.976;2023-05-10T00:17:57;100703.16;;;12.80;100.00
66887;BME280;67239;51.680;5.976;2023-05-10T00:20:24;100708.38;;;12.82;100.00
66887;BME280;67239;51.680;5.976;2023-05-10T00:22:51;100713.56;;;12.85;100.00
66887;BME280;67239;51.680;5.976;2023-05-10T00:25:18;100703.00;;;12.83;100.00
66887;BME280;67239;51.680;5.976;2023-05-10T00:27:45;100710.19;;;12.81;100.00
66887;BME280;67239;51.680;5.976;2023-05-10T00:30:12;100700.44;;;12.82;100.00
66887;BME280;67239;51.680;5.976;2023-05-10T00:32:40;100703.16;;;12.80;100.00
66887;BME280;67239;51.680;5.976;2023-05-10T00:35:07;100711.03;;;12.82;100.00
66887;BME280;67239;51.680;5.976;2023-05-10T00:37:34;100710.19;;;12.81;100.00
66887;BME280;67239;51.680;5.976;2023-05-10T00:40:02;100707.44;;;12.83;100.00
66887;BME280;67239;51.680;5.976;2023-05-10T00:42:29;100703.09;;;12.82;100.00
66887;BME280;67239;51.680;5.976;2023-05-10T00:44:56;100707.34;;;12.86;100.00
66887;BME280;67239;51.680;5.976;2023-05-10T00:47:24;100705.47;;;12.88;100.00
66887;BME280;67239;51.680;5.976;2023-05-10T00:49:51;100709.84;;;12.89;100.00
66887;BME280;67239;51.680;5.976;2023-05-10T00:52:19;100706.25;;;12.90;100.00
66887;BME280;67239;51.680;5.976;2023-05-10T00:54:46;100700.97;;;12.90;100.00
66887;BME280;67239;51.680;5.976;2023-05-10T00:57:14;100707.19;;;12.89;100.00
66887;BME280;67239;51.680;5.976;2023-05-10T00:59:41;100713.28;;;12.91;100.00
66887;BME280;67239;51.680;5.976;2023-05-10T01:02:08;100706.22;;;12.92;100.00
66887;BME280;67239;51.680;5.976;2023-05-10T01:04:36;100702.69;;;12.91;100.00
66887;BME280;67239;51.680;5.976;2023-05-10T01:07:04;100715.06;;;12.91;100.00
66887;BME280;67239;51.680;5.976;2023-05-10T01:09:31;100703.63;;;12.90;100.00
66887;BME280;67239;51.680;5.976;2023-05-10T01:12:00;100703.63;;;12.90;100.00
66887;BME280;67239;51.680;5.976;2023-05-10T01:14:29;100706.34;;;12.88;100.00
66887;BME280;67239;51.680;5.976;2023-05-10T01:16:56;100706.34;;;12.88;100.00
66887;BME280;67239;51.680;5.976;2023-05-10T01:19:26;100708.91;;;12.90;100.00
66887;BME280;67239;51.680;5.976;2023-05-10T01:22:32;100710.75;;;12.88;100.00
66887;BME280;67239;51.680;5.976;2023-05-10T01:25:32;100712.56;;;12.87;100.00
66887;BME280;67239;51.680;5.976;2023-05-10T01:28:16;100707.25;;;12.87;100.00
66887;BME280;67239;51.680;5.976;2023-05-10T01:33:55;100707.13;;;12.91;100.00
66887;BME280;67239;51.680;5.976;2023-05-10T01:36:41;100703.56;;;12.92;100.00
66887;BME280;67239;51.680;5.976;2023-05-10T01:39:26;100701.91;;;12.89;100.00
66887;BME280;67239;51.680;5.976;2023-05-10T01:42:11;100705.41;;;12.89;100.00
66887;BME280;67239;51.680;5.976;2023-05-10T01:45:14;100707.19;;;12.89;100.00
66887;BME280;67239;51.680;5.976;2023-05-10T01:47:44;100709.78;;;12.91;100.00
66887;BME280;67239;51.680;5.976;2023-05-10T01:50:24;100712.44;;;12.91;100.00
66887;BME280;67239;51.680;5.976;2023-05-10T01:52:58;100713.19;;;12.93;100.00
66887;BME280;67239;51.680;5.976;2023-05-10T01:55:34;100715.00;;;12.92;100.00
66887;BME280;67239;51.680;5.976;2023-05-10T01:58:09;100713.28;;;12.91;100.00
66887;BME280;67239;51.680;5.976;2023-05-10T02:00:42;100713.41;;;12.88;100.00
66887;BME280;67239;51.680;5.976;2023-05-10T02:03:12;100707.25;;;12.87;100.00
66887;BME280;67239;51.680;5.976;2023-05-10T02:05:43;100711.75;;;12.85;100.00
66887;BME280;67239;51.680;5.976;2023-05-10T02:08:13;100707.53;;;12.81;100.00
66887;BME280;67239;51.680;5.976;2023-05-10T02:10:45;100711.94;;;12.81;100.00
66887;BME280;67239;51.680;5.976;2023-05-10T02:13:16;100706.78;;;12.78;100.00
66887;BME280;67239;51.680;5.976;2023-05-10T02:15:48;100717.53;;;12.73;100.00
66887;BME280;67239;51.680;5.976;2023-05-10T02:18:17;100716.69;;;12.72;100.00
66887;BME280;67239;51.680;5.976;2023-05-10T02:20:46;100721.00;;;12.75;100.00
66887;BME280;67239;51.680;5.976;2023-05-10T02:23:16;100723.63;;;12.75;100.00
66887;BME280;67239;51.680;5.976;2023-05-10T02:25:45;100728.06;;;12.74;100.00
66887;BME280;67239;51.680;5.976;2023-05-10T02:28:15;100728.06;;;12.74;100.00
66887;BME280;67239;51.680;5.976;2023-05-10T02:30:45;100717.50;;;12.74;100.00
66887;BME280;67239;51.680;5.976;2023-05-10T02:33:14;100729.00;;;12.73;100.00
66887;BME280;67239;51.680;5.976;2023-05-10T02:35:41;100723.75;;;12.72;100.00
66887;BME280;67239;51.680;5.976;2023-05-10T02:38:10;100730.84;;;12.71;100.00
66887;BME280;67239;51.680;5.976;2023-05-10T02:40:38;100729.03;;;12.72;100.00
66887;BME280;67239;51.680;5.976;2023-05-10T02:43:12;100738.69;;;12.73;100.00
66887;BME280;67239;51.680;5.976;2023-05-10T02:45:42;100739.59;;;12.73;100.00
66887;BME280;67239;51.680;5.976;2023-05-10T02:48:10;100736.03;;;12.74;100.00
66887;BME280;67239;51.680;5.976;2023-05-10T02:50:43;100736.81;;;12.77;100.00
66887;BME280;67239;51.680;5.976;2023-05-10T02:53:15;100737.66;;;12.77;100.00
66887;BME280;67239;51.680;5.976;2023-05-10T02:55:52;100734.94;;;12.79;100.00
66887;BME280;67239;51.680;5.976;2023-05-10T02:58:23;100732.38;;;12.77;100.00
66887;BME280;67239;51.680;5.976;2023-05-10T03:00:51;100736.06;;;12.73;100.00
66887;BME280;67239;51.680;5.976;2023-05-10T03:03:18;100733.38;;;12.74;100.00
66887;BME280;67239;51.680;5.976;2023-05-10T03:05:49;100743.16;;;12.72;100.00
66887;BME280;67239;51.680;5.976;2023-05-10T03:08:16;100740.44;;;12.74;100.00
66887;BME280;67239;51.680;5.976;2023-05-10T03:11:10;100737.06;;;12.70;100.00
66887;BME280;67239;51.680;5.976;2023-05-10T03:16:56;100737.94;;;12.71;100.00
66887;BME280;67239;51.680;5.976;2023-05-10T03:19:56;100735.31;;;12.69;100.00
66887;BME280;67239;51.680;5.976;2023-05-10T03:22:34;100745.00;;;12.70;100.00
66887;BME280;67239;51.680;5.976;2023-05-10T03:25:06;100748.56;;;12.69;100.00
66887;BME280;67239;51.680;5.976;2023-05-10T03:27:40;100741.53;;;12.68;100.00
66887;BME280;67239;51.680;5.976;2023-05-10T03:30:11;100746.78;;;12.70;100.00
66887;BME280;67239;51.680;5.976;2023-05-10T03:32:40;100747.72;;;12.69;100.00
66887;BME280;67239;51.680;5.976;2023-05-10T03:35:12;100748.50;;;12.71;100.00
66887;BME280;67239;51.680;5.976;2023-05-10T03:37:40;100753.00;;;12.69;100.00
66887;BME280;67239;51.680;5.976;2023-05-10T03:40:08;100751.16;;;12.71;100.00
66887;BME280;67239;51.680;5.976;2023-05-10T03:42:38;100755.56;;;12.70;100.00
66887;BME280;67239;51.680;5.976;2023-05-10T03:45:05;100762.59;;;12.71;100.00
66887;BME280;67239;51.680;5.976;2023-05-10T03:47:33;100760.78;;;12.72;100.00
66887;BME280;67239;51.680;5.976;2023-05-10T03:50:00;100762.59;;;12.71;100.00
66887;BME280;67239;51.680;5.976;2023-05-10T03:52:29;100764.22;;;12.74;100.00
66887;BME280;67239;51.680;5.976;2023-05-10T03:54:56;100771.22;;;12.77;100.00
66887;BME280;67239;51.680;5.976;2023-05-10T03:57:23;100771.22;;;12.77;100.00
66887;BME280;67239;51.680;5.976;2023-05-10T03:59:51;100775.53;;;12.78;100.00
66887;BME280;67239;51.680;5.976;2023-05-10T04:02:18;100767.59;;;12.78;100.00
66887;BME280;67239;51.680;5.976;2023-05-10T04:04:45;100765.91;;;12.77;100.00
66887;BME280;67239;51.680;5.976;2023-05-10T04:07:12;100764.97;;;12.78;100.00
66887;BME280;67239;51.680;5.976;2023-05-10T04:09:39;100767.59;;;12.78;100.00
66887;BME280;67239;51.680;5.976;2023-05-10T04:12:06;100768.41;;;12.80;100.00
66887;BME280;67239;51.680;5.976;2023-05-10T04:14:36;100770.13;;;12.81;100.00
66887;BME280;67239;51.680;5.976;2023-05-10T04:17:03;100781.59;;;12.81;100.00
66887;BME280;67239;51.680;5.976;2023-05-10T04:19:31;100779.81;;;12.82;100.00
66887;BME280;67239;51.680;5.976;2023-05-10T04:21:58;100772.84;;;12.79;100.00
66887;BME280;67239;51.680;5.976;2023-05-10T04:24:26;100775.44;;;12.81;100.00
66887;BME280;67239;51.680;5.976;2023-05-10T04:26:54;100771.78;;;12.83;100.00
66887;BME280;67239;51.680;5.976;2023-05-10T04:29:23;100778.00;;;12.82;100.00
66887;BME280;67239;51.680;5.976;2023-05-10T04:31:50;100777.16;;;12.82;100.00
66887;BME280;67239;51.680;5.976;2023-05-10T04:34:17;100776.31;;;12.81;100.00
66887;BME280;67239;51.680;5.976;2023-05-10T04:36:51;100775.31;;;12.84;100.00
66887;BME280;67239;51.680;5.976;2023-05-10T04:39:18;100776.97;;;12.86;100.00
66887;BME280;67239;51.680;5.976;2023-05-10T04:41:48;100780.50;;;12.87;100.00
66887;BME280;67239;51.680;5.976;2023-05-10T04:44:19;100786.56;;;12.89;100.00
66887;BME280;67239;51.680;5.976;2023-05-10T04:46:46;100783.06;;;12.88;100.00
66887;BME280;67239;51.680;5.976;2023-05-10T04:49:14;100786.44;;;12.92;100.00
66887;BME280;67239;51.680;5.976;2023-05-10T04:51:41;100789.88;;;12.94;100.00
66887;BME280;67239;51.680;5.976;2023-05-10T04:54:08;100788.03;;;12.96;100.00
66887;BME280;67239;51.680;5.976;2023-05-10T04:56:35;100790.63;;;12.98;100.00
66887;BME280;67239;51.680;5.976;2023-05-10T04:59:02;100797.63;;;12.99;100.00
66887;BME280;67239;51.680;5.976;2023-05-10T05:01:29;100798.47;;;12.99;100.00
66887;BME280;67239;51.680;5.976;2023-05-10T05:03:56;100792.28;;;13.00;100.00
66887;BME280;67239;51.680;5.976;2023-05-10T05:06:24;100800.28;;;12.99;100.00
66887;BME280;67239;51.680;5.976;2023-05-10T05:08:51;100794.13;;;12.98;100.00
66887;BME280;67239;51.680;5.976;2023-05-10T05:11:18;100796.75;;;12.98;100.00
66887;BME280;67239;51.680;5.976;2023-05-10T05:13:46;100799.47;;;12.97;100.00
66887;BME280;67239;51.680;5.976;2023-05-10T05:16:13;100799.38;;;13.00;100.00
66887;BME280;67239;51.680;5.976;2023-05-10T05:18:40;100807.16;;;13.03;100.00
66887;BME280;67239;51.680;5.976;2023-05-10T05:21:18;100797.56;;;13.00;100.00
66887;BME280;67239;51.680;5.976;2023-05-10T05:23:46;100799.47;;;12.97;100.00
66887;BME280;67239;51.680;5.976;2023-05-10T05:26:13;100801.41;;;12.93;100.00
66887;BME280;67239;51.680;5.976;2023-05-10T05:28:41;100805.63;;;12.97;100.00
66887;BME280;67239;51.680;5.976;2023-05-10T05:31:09;100802.75;;;13.03;100.00
66887;BME280;67239;51.680;5.976;2023-05-10T05:33:36;100806.97;;;13.08;100.00
66887;BME280;67239;51.680;5.976;2023-05-10T05:36:04;100807.72;;;13.11;100.00
66887;BME280;67239;51.680;5.976;2023-05-10T05:38:32;100815.66;;;13.11;100.00
66887;BME280;67239;51.680;5.976;2023-05-10T05:40:59;100813.94;;;13.10;100.00
66887;BME280;67239;51.680;5.976;2023-05-10T05:43:26;100817.50;;;13.09;100.00
66887;BME280;67239;51.680;5.976;2023-05-10T05:45:54;100811.41;;;13.07;100.00
66887;BME280;67239;51.680;5.976;2023-05-10T05:48:21;100815.91;;;13.05;100.00
66887;BME280;67239;51.680;5.976;2023-05-10T05:50:48;100827.47;;;13.02;100.00
66887;BME280;67239;51.680;5.976;2023-05-10T05:53:15;100827.47;;;13.02;100.00
66887;BME280;67239;51.680;5.976;2023-05-10T05:55:55;100826.78;;;12.97;100.00
66887;BME280;67239;51.680;5.976;2023-05-10T05:58:25;100822.69;;;12.90;100.00
66887;BME280;67239;51.680;5.976;2023-05-10T06:00:52;100829.75;;;12.89;100.00
66887;BME280;67239;51.680;5.976;2023-05-10T06:03:19;100828.16;;;12.85;100.00
66887;BME280;67239;51.680;5.976;2023-05-10T06:05:47;100835.34;;;12.82;100.00
66887;BME280;67239;51.680;5.976;2023-05-10T06:08:15;100837.25;;;12.78;100.00
66887;BME280;67239;51.680;5.976;2023-05-10T06:10:42;100844.50;;;12.73;100.00
66887;BME280;67239;51.680;5.976;2023-05-10T06:13:09;100838.38;;;12.72;100.00
66887;BME280;67239;51.680;5.976;2023-05-10T06:15:36;100838.19;;;12.77;100.00
66887;BME280;67239;51.680;5.976;2023-05-10T06:18:04;100841.50;;;12.82;100.00
66887;BME280;67239;51.680;5.976;2023-05-10T06:20:31;100853.69;;;12.86;100.00
66887;BME280;67239;51.680;5.976;2023-05-10T06:22:58;100847.38;;;12.91;100.00
66887;BME280;67239;51.680;5.976;2023-05-10T06:25:25;100850.78;;;12.93;100.00
66887;BME280;67239;51.680;5.976;2023-05-10T06:27:52;100860.44;;;12.94;100.00
66887;BME280;67239;51.680;5.976;2023-05-10T06:30:27;100852.50;;;12.94;100.00
66887;BME280;67239;51.680;5.976;2023-05-10T06:32:54;100862.13;;;12.96;100.00
66887;BME280;67239;51.680;5.976;2023-05-10T06:35:22;100854.13;;;12.98;100.00
66887;BME280;67239;51.680;5.976;2023-05-10T06:37:49;100860.69;;;13.10;100.00
66887;BME280;67239;51.680;5.976;2023-05-10T06:40:17;100861.75;;;13.28;100.00
66887;BME280;67239;51.680;5.976;2023-05-10T06:42:46;100871.09;;;13.36;100.00
66887;BME280;67239;51.680;5.976;2023-05-10T06:45:14;100864.72;;;13.42;100.00
66887;BME280;67239;51.680;5.976;2023-05-10T06:47:42;100864.53;;;13.47;100.00
66887;BME280;67239;51.680;5.976;2023-05-10T06:50:10;100860.81;;;13.51;100.00
66887;BME280;67239;51.680;5.976;2023-05-10T06:52:38;100863.25;;;13.56;100.00
66887;BME280;67239;51.680;5.976;2023-05-10T06:55:06;100873.72;;;13.59;100.00
66887;BME280;67239;51.680;5.976;2023-05-10T06:57:33;100878.03;;;13.61;100.00
66887;BME280;67239;51.680;5.976;2023-05-10T07:00:01;100881.47;;;13.63;100.00
66887;BME280;67239;51.680;5.976;2023-05-10T07:02:30;100879.84;;;13.61;100.00
66887;BME280;67239;51.680;5.976;2023-05-10T07:04:57;100886.16;;;13.57;100.00
66887;BME280;67239;51.680;5.976;2023-05-10T07:07:40;100887.09;;;13.56;100.00
66887;BME280;67239;51.680;5.976;2023-05-10T07:10:08;100888.16;;;13.51;100.00
66887;BME280;67239;51.680;5.976;2023-05-10T07:12:35;100895.22;;;13.51;100.00
66887;BME280;67239;51.680;5.976;2023-05-10T07:15:03;100894.31;;;13.52;100.00
66887;BME280;67239;51.680;5.976;2023-05-10T07:17:30;100893.31;;;13.55;100.00
66887;BME280;67239;51.680;5.976;2023-05-10T07:19:58;100892.28;;;13.59;100.00
66887;BME280;67239;51.680;5.976;2023-05-10T07:22:25;100897.50;;;13.60;100.00
66887;BME280;67239;51.680;5.976;2023-05-10T07:24:52;100897.50;;;13.60;100.00
66887;BME280;67239;51.680;5.976;2023-05-10T07:27:19;100895.72;;;13.61;100.00
66887;BME280;67239;51.680;5.976;2023-05-10T07:29:46;100898.50;;;13.58;100.00
66887;BME280;67239;51.680;5.976;2023-05-10T07:32:13;100896.75;;;13.57;100.00
66887;BME280;67239;51.680;5.976;2023-05-10T07:34:40;100903.97;;;13.53;100.00
66887;BME280;67239;51.680;5.976;2023-05-10T07:37:08;100905.81;;;13.51;100.00
66887;BME280;67239;51.680;5.976;2023-05-10T07:39:35;100906.72;;;13.51;100.00
66887;BME280;67239;51.680;5.976;2023-05-10T07:42:02;100910.13;;;13.54;100.00
66887;BME280;67239;51.680;5.976;2023-05-10T07:44:29;100915.44;;;13.54;100.00
66887;BME280;67239;51.680;5.976;2023-05-10T07:46:56;100919.94;;;13.51;100.00
66887;BME280;67239;51.680;5.976;2023-05-10T07:49:23;100914.84;;;13.47;100.00
66887;BME280;67239;51.680;5.976;2023-05-10T07:51:51;100915.75;;;13.46;100.00
66887;BME280;67239;51.680;5.976;2023-05-10T07:54:18;100913.97;;;13.46;100.00
66887;BME280;67239;51.680;5.976;2023-05-10T07:56:45;100915.75;;;13.46;100.00
66887;BME280;67239;51.680;5.976;2023-05-10T07:59:17;100912.84;;;13.52;100.00
66887;BME280;67239;51.680;5.976;2023-05-10T08:01:44;100918.84;;;13.57;100.00
66887;BME280;67239;51.680;5.976;2023-05-10T08:04:11;100923.66;;;13.68;100.00
66887;BME280;67239;51.680;5.976;2023-05-10T08:06:39;100919.63;;;13.80;100.00
66887;BME280;67239;51.680;5.976;2023-05-10T08:09:07;100922.75;;;13.90;100.00
66887;BME280;67239;51.680;5.976;2023-05-10T08:11:35;100924.50;;;13.91;100.00
66887;BME280;67239;51.680;5.976;2023-05-10T08:14:02;100928.91;;;13.90;100.00
66887;BME280;67239;51.680;5.976;2023-05-10T08:16:29;100929.09;;;13.86;100.00
66887;BME280;67239;51.680;5.976;2023-05-10T08:18:56;100925.72;;;13.82;100.00
66887;BME280;67239;51.680;5.976;2023-05-10T08:21:23;100930.22;;;13.80;100.00
66887;BME280;67239;51.680;5.976;2023-05-10T08:23:50;100934.88;;;13.75;100.00
66887;BME280;67239;51.680;5.976;2023-05-10T08:26:17;100941.09;;;13.74;100.00
66887;BME280;67239;51.680;5.976;2023-05-10T08:28:44;100941.22;;;13.71;100.00
66887;BME280;67239;51.680;5.976;2023-05-10T08:31:11;100949.25;;;13.69;100.00
66887;BME280;67239;51.680;5.976;2023-05-10T08:33:38;100944.78;;;13.70;100.00
66887;BME280;67239;51.680;5.976;2023-05-10T08:36:08;100944.59;;;13.74;100.00
66887;BME280;67239;51.680;5.976;2023-05-10T08:38:37;100951.38;;;13.81;100.00
66887;BME280;67239;51.680;5.976;2023-05-10T08:41:05;100949.38;;;13.87;100.00
66887;BME280;67239;51.680;5.976;2023-05-10T08:43:35;100962.38;;;13.93;100.00
66887;BME280;67239;51.680;5.976;2023-05-10T08:46:05;100960.06;;;14.06;100.00
66887;BME280;67239;51.680;5.976;2023-05-10T08:48:34;100950.78;;;14.16;100.00
66887;BME280;67239;51.680;5.976;2023-05-10T08:51:02;100949.59;;;14.23;100.00
66887;BME280;67239;51.680;5.976;2023-05-10T08:53:32;100961.59;;;14.32;100.00
66887;BME280;67239;51.680;5.976;2023-05-10T08:56:02;100955.00;;;14.41;100.00
66887;BME280;67239;51.680;5.976;2023-05-10T08:58:30;100968.66;;;14.52;100.00
66887;BME280;67239;51.680;5.976;2023-05-10T09:00:59;100967.13;;;14.67;100.00
66887;BME280;67239;51.680;5.976;2023-05-10T09:03:27;100964.56;;;14.85;100.00
66887;BME280;67239;51.680;5.976;2023-05-10T09:05:54;100971.69;;;15.03;98.09
66887;BME280;67239;51.680;5.976;2023-05-10T09:08:25;100977.63;;;15.09;97.26
66887;BME280;67239;51.680;5.976;2023-05-10T09:10:54;100974.69;;;15.15;96.72
66887;BME280;67239;51.680;5.976;2023-05-10T09:13:22;100978.09;;;15.17;95.27
66887;BME280;67239;51.680;5.976;2023-05-10T09:15:50;100981.41;;;15.22;94.89
66887;BME280;67239;51.680;5.976;2023-05-10T09:18:19;100982.00;;;15.29;93.86
66887;BME280;67239;51.680;5.976;2023-05-10T09:20:46;100985.13;;;15.37;93.14
66887;BME280;67239;51.680;5.976;2023-05-10T09:23:13;100985.06;;;15.38;90.52
66887;BME280;67239;51.680;5.976;2023-05-10T09:25:43;100986.91;;;15.36;90.08
66887;BME280;67239;51.680;5.976;2023-05-10T09:28:11;100991.59;;;15.31;89.08
66887;BME280;67239;51.680;5.976;2023-05-10T09:30:38;100995.31;;;15.27;90.52
66887;BME280;67239;51.680;5.976;2023-05-10T09:33:05;100996.34;;;15.25;91.71
66887;BME280;67239;51.680;5.976;2023-05-10T09:35:33;101000.19;;;15.36;92.38
66887;BME280;67239;51.680;5.976;2023-05-10T09:38:03;101001.19;;;15.53;91.72
66887;BME280;67239;51.680;5.976;2023-05-10T09:40:31;101006.63;;;15.69;92.63
66887;BME280;67239;51.680;5.976;2023-05-10T09:43:06;101003.28;;;15.83;92.58
66887;BME280;67239;51.680;5.976;2023-05-10T09:45:35;101007.69;;;16.02;91.85
66887;BME280;67239;51.680;5.976;2023-05-10T09:48:05;101005.44;;;16.11;90.17
66887;BME280;67239;51.680;5.976;2023-05-10T09:50:32;101016.09;;;16.11;89.18
66887;BME280;67239;51.680;5.976;2023-05-10T09:53:02;101016.47;;;16.04;89.40
66887;BME280;67239;51.680;5.976;2023-05-10T09:55:43;101018.00;;;15.90;86.94
66887;BME280;67239;51.680;5.976;2023-05-10T09:58:13;101020.41;;;15.77;89.35
66887;BME280;67239;51.680;5.976;2023-05-10T10:00:46;101018.03;;;15.71;88.59
66887;BME280;67239;51.680;5.976;2023-05-10T10:03:23;101024.34;;;15.68;89.06
66887;BME280;67239;51.680;5.976;2023-05-10T10:05:50;101018.75;;;15.75;89.07
66887;BME280;67239;51.680;5.976;2023-05-10T10:08:19;101026.16;;;15.87;89.79
66887;BME280;67239;51.680;5.976;2023-05-10T10:10:47;101026.91;;;15.89;86.97
66887;BME280;67239;51.680;5.976;2023-05-10T10:13:18;101030.88;;;15.80;86.55
66887;BME280;67239;51.680;5.976;2023-05-10T10:15:46;101030.47;;;15.71;86.67
66887;BME280;67239;51.680;5.976;2023-05-10T10:18:18;101032.41;;;15.67;88.51
66887;BME280;67239;51.680;5.976;2023-05-10T10:20:50;101032.53;;;15.64;88.21
66887;BME280;67239;51.680;5.976;2023-05-10T10:23:17;101031.28;;;15.53;87.61
66887;BME280;67239;51.680;5.976;2023-05-10T10:25:45;101033.44;;;15.45;87.99
66887;BME280;67239;51.680;5.976;2023-05-10T10:31:34;101036.75;;;15.50;88.59
66887;BME280;67239;51.680;5.976;2023-05-10T10:34:09;101030.81;;;15.63;89.04
66887;BME280;67239;51.680;5.976;2023-05-10T10:36:42;101036.94;;;15.84;87.82
66887;BME280;67239;51.680;5.976;2023-05-10T10:39:12;101035.16;;;16.02;86.03
66887;BME280;67239;51.680;5.976;2023-05-10T10:41:49;101036.34;;;16.14;84.13
66887;BME280;67239;51.680;5.976;2023-05-10T10:47:08;101033.13;;;16.25;82.33
66887;BME280;67239;51.680;5.976;2023-05-10T10:52:40;101034.16;;;16.22;82.59
66887;BME280;67239;51.680;5.976;2023-05-10T10:55:17;101032.97;;;16.10;83.12
66887;BME280;67239;51.680;5.976;2023-05-10T11:00:35;101032.59;;;15.81;83.83
66887;BME280;67239;51.680;5.976;2023-05-10T11:03:09;101042.50;;;15.78;85.54
66887;BME280;67239;51.680;5.976;2023-05-10T11:08:41;101044.53;;;15.73;85.86
66887;BME280;67239;51.680;5.976;2023-05-10T11:11:14;101043.59;;;15.74;86.58
66887;BME280;67239;51.680;5.976;2023-05-10T11:13:45;101048.03;;;15.73;86.91
66887;BME280;67239;51.680;5.976;2023-05-10T11:16:22;101042.09;;;15.68;84.94
66887;BME280;67239;51.680;5.976;2023-05-10T11:18:58;101050.53;;;15.59;85.29
66887;BME280;67239;51.680;5.976;2023-05-10T11:21:30;101054.69;;;15.45;85.99
66887;BME280;67239;51.680;5.976;2023-05-10T11:23:59;101056.78;;;15.38;85.80
66887;BME280;67239;51.680;5.976;2023-05-10T11:26:33;101055.69;;;15.24;85.72
66887;BME280;67239;51.680;5.976;2023-05-10T11:29:01;101064.16;;;15.13;87.21
66887;BME280;67239;51.680;5.976;2023-05-10T11:31:29;101060.94;;;15.06;88.07
66887;BME280;67239;51.680;5.976;2023-05-10T11:33:58;101053.06;;;15.04;89.17
66887;BME280;67239;51.680;5.976;2023-05-10T11:36:32;101061.00;;;15.04;88.99
66887;BME280;67239;51.680;5.976;2023-05-10T11:39:00;101060.09;;;15.05;89.52
66887;BME280;67239;51.680;5.976;2023-05-10T11:41:28;101058.91;;;15.11;89.35
66887;BME280;67239;51.680;5.976;2023-05-10T11:43:57;101056.13;;;15.14;90.28
66887;BME280;67239;51.680;5.976;2023-05-10T11:46:26;101060.16;;;15.23;91.06
66887;BME280;67239;51.680;5.976;2023-05-10T11:49:01;101061.44;;;15.33;90.27
66887;BME280;67239;51.680;5.976;2023-05-10T11:51:34;101053.63;;;15.49;89.48
66887;BME280;67239;51.680;5.976;2023-05-10T11:54:07;101060.63;;;15.69;87.77
66887;BME280;67239;51.680;5.976;2023-05-10T11:56:37;101055.53;;;15.84;88.08
66887;BME280;67239;51.680;5.976;2023-05-10T11:59:05;101055.66;;;16.00;89.62
66887;BME280;67239;51.680;5.976;2023-05-10T12:01:33;101052.38;;;16.12;85.85
66887;BME280;67239;51.680;5.976;2023-05-10T12:04:01;101061.06;;;16.16;86.22
66887;BME280;67239;51.680;5.976;2023-05-10T12:06:31;101064.44;;;16.20;85.48
66887;BME280;67239;51.680;5.976;2023-05-10T12:09:07;101062.13;;;16.29;86.98
66887;BME280;67239;51.680;5.976;2023-05-10T12:11:39;101063.94;;;16.46;88.48
66887;BME280;67239;51.680;5.976;2023-05-10T12:14:10;101069.97;;;16.68;85.79
66887;BME280;67239;51.680;5.976;2023-05-10T12:16:37;101059.53;;;16.81;83.24
66887;BME280;67239;51.680;5.976;2023-05-10T12:19:04;101057.09;;;16.94;84.59
66887;BME280;67239;51.680;5.976;2023-05-10T12:21:32;101061.41;;;17.12;86.53
66887;BME280;67239;51.680;5.976;2023-05-10T12:24:02;101064.00;;;17.30;85.97
66887;BME280;67239;51.680;5.976;2023-05-10T12:26:30;101061.72;;;17.39;85.86
66887;BME280;67239;51.680;5.976;2023-05-10T12:29:15;101060.09;;;17.53;85.78
66887;BME280;67239;51.680;5.976;2023-05-10T12:31:55;101061.88;;;17.68;85.88
66887;BME280;67239;51.680;5.976;2023-05-10T12:36:52;101064.94;;;17.93;80.84
66887;BME280;67239;51.680;5.976;2023-05-10T12:39:20;101070.66;;;18.03;81.05
66887;BME280;67239;51.680;5.976;2023-05-10T12:41:47;101065.38;;;18.01;80.05
66887;BME280;67239;51.680;5.976;2023-05-10T12:44:14;101077.09;;;17.98;80.85
66887;BME280;67239;51.680;5.976;2023-05-10T12:46:41;101082.94;;;17.89;81.68
66887;BME280;67239;51.680;5.976;2023-05-10T12:49:08;101075.72;;;17.75;82.13
66887;BME280;67239;51.680;5.976;2023-05-10T12:51:35;101083.88;;;17.56;81.37
66887;BME280;67239;51.680;5.976;2023-05-10T12:54:02;101084.13;;;17.35;82.28
66887;BME280;67239;51.680;5.976;2023-05-10T12:56:30;101086.28;;;17.13;82.62
66887;BME280;67239;51.680;5.976;2023-05-10T12:58:57;101095.28;;;16.92;83.38
66887;BME280;67239;51.680;5.976;2023-05-10T13:01:24;101089.28;;;16.71;83.79
66887;BME280;67239;51.680;5.976;2023-05-10T13:03:51;101091.19;;;16.52;84.54
66887;BME280;67239;51.680;5.976;2023-05-10T13:06:18;101101.09;;;16.30;84.76
66887;BME280;67239;51.680;5.976;2023-05-10T13:08:45;101101.81;;;16.17;85.29
66887;BME280;67239;51.680;5.976;2023-05-10T13:11:12;101093.81;;;15.99;86.58
66887;BME280;67239;51.680;5.976;2023-05-10T13:13:43;101091.81;;;15.85;86.84
66887;BME280;67239;51.680;5.976;2023-05-10T13:16:10;101093.41;;;15.70;87.50
66887;BME280;67239;51.680;5.976;2023-05-10T13:18:37;101091.09;;;15.62;88.81